< Cyclone 195807 1958 Season Cyclone 195809 >
Cyclone 195808 (unnamed)
General InformationTrack Information on Google Maps || ResourceGoogle EarthGE AnimationAtom FeedGeoJSON
Detalied Best Track (Time Zone = UTC)
Year Month Day Hour Lat. Long. Pressure (hPa) Wind (kt) Class Image Chart
1958 2 12 05 -12.9 139.0 1002 0 0 -- --
1958 2 12 23 -13.5 138.6 1000 0 0 -- --
1958 2 13 05 -14.1 139.2 1000 0 0 -- --
1958 2 13 23 -15.4 140.5 998 0 0 -- --
1958 2 14 05 -16.2 140.8 996 0 0 -- --
1958 2 14 23 -17.9 142.0 1003 0 0 -- --
1958 2 15 05 -16.9 142.8 1000 0 0 -- --
1958 2 15 11 -15.5 146.2 1001 0 0 -- --
1958 2 15 23 -17.1 147.8 1000 0 0 -- --
1958 2 16 11 -17.9 149.0 998 0 0 -- --
1958 2 16 23 -19.2 150.0 998 0 0 -- --
1958 2 17 11 -18.4 150.0 998 0 0 -- --
1958 2 17 23 -17.4 153.0 1000 0 0 -- --
1958 2 18 11 -15.7 149.6 1000 0 0 -- --
1958 2 18 23 -16.5 149.2 998 0 0 -- --
1958 2 19 11 -16.9 149.5 994 0 0 -- --
1958 2 19 23 -19.1 148.0 994 0 0 -- --
1958 2 20 11 -19.9 147.5 995 0 0 -- --
1958 2 20 23 -19.2 147.5 995 0 0 -- --
1958 2 21 11 -19.3 149.5 998 0 0 -- --
1958 2 21 23 -19.4 150.0 998 0 0 -- --
1958 2 22 11 -19.9 150.0 998 0 0 -- --
1958 2 22 23 -19.9 151.5 1002 0 0 -- --
1958 2 23 11 -20.9 155.0 1004 0 0 -- --
1958 2 23 23 -20.3 157.6 1008 0 0 -- --
1958 2 24 23 -17.5 158.6 1008 0 0 -- --
< Cyclone 195807 1958 Season Cyclone 195809 >

Help